Time;durP1;ratioP1;P1;durP2;ratioP2;P2;SDS_P1;SDS_P2;PMS_P1;PMS_P2;Temp;Humidity;BMP_temperature;BMP_pressure;BME280_temperature;BME280_humidity;BME280_pressure;Samples;Min_cycle;Max_cycle;Signal;HPM_P1;HPM_P2
2022/09/07 00:02:10;;;;;;;1.40;1.30;;;21.90;72.10;22.30;96405.00;;;;5092150;28;20665;-81
2022/09/07 00:04:37;;;;;;;2.33;1.40;;;21.80;72.00;22.30;96412.00;;;;5098275;28;20218;-81
2022/09/07 00:07:04;;;;;;;4.43;1.77;;;21.80;72.00;22.20;96405.00;;;;5098910;28;20202;-81
2022/09/07 00:09:32;;;;;;;2.43;1.63;;;21.80;72.00;22.20;96412.00;;;;5097557;28;20255;-81
2022/09/07 00:11:59;;;;;;;1.87;1.60;;;21.70;72.00;22.20;96412.00;;;;5091568;28;20593;-80
2022/09/07 00:14:26;;;;;;;1.73;1.60;;;21.70;72.00;22.20;96412.00;;;;5095455;28;20222;-81
2022/09/07 00:16:55;;;;;;;1.80;1.60;;;21.70;72.00;22.10;96411.00;;;;5095121;28;20564;-81
2022/09/07 00:19:22;;;;;;;2.17;1.63;;;21.70;72.10;22.10;96409.00;;;;5092354;28;20250;-80
2022/09/07 00:21:49;;;;;;;1.90;1.73;;;21.70;72.10;22.10;96398.00;;;;5096347;28;20202;-80
2022/09/07 00:24:16;;;;;;;2.17;1.50;;;21.70;72.10;22.10;96387.00;;;;5099587;28;20217;-80
2022/09/07 00:26:43;;;;;;;2.13;1.40;;;21.60;72.00;22.10;96386.00;;;;5084347;28;20203;-80
2022/09/07 00:29:11;;;;;;;3.97;1.83;;;21.60;72.20;22.10;96383.00;;;;5088698;28;20235;-80
2022/09/07 00:31:38;;;;;;;1.70;1.03;;;21.60;72.50;22.10;96376.00;;;;5091786;28;20246;-81
2022/09/07 00:34:06;;;;;;;1.70;1.40;;;21.60;72.70;22.00;96380.00;;;;5097941;28;20898;-81
2022/09/07 00:36:34;;;;;;;2.73;1.37;;;21.50;72.80;22.00;96389.00;;;;5087467;28;20649;-80
2022/09/07 00:39:01;;;;;;;2.03;1.20;;;21.50;72.90;22.00;96379.00;;;;5089240;28;20211;-80
2022/09/07 00:41:28;;;;;;;2.73;1.60;;;21.50;72.80;22.00;96383.00;;;;5096786;28;20265;-80
2022/09/07 00:43:58;;;;;;;1.97;1.50;;;21.50;72.70;22.00;96377.00;;;;5093585;28;20199;-80
2022/09/07 00:46:28;;;;;;;1.80;1.30;;;21.50;72.70;21.90;96367.00;;;;5093739;28;20253;-80
2022/09/07 00:49:02;;;;;;;2.83;1.23;;;21.50;72.70;21.90;96375.00;;;;5096105;28;20260;-80
2022/09/07 00:51:38;;;;;;;2.00;1.40;;;21.50;73.00;21.90;96369.00;;;;5094178;28;20225;-80
2022/09/07 00:54:10;;;;;;;1.50;1.40;;;21.50;73.20;21.90;96368.00;;;;5099301;28;20190;-81
2022/09/07 00:56:43;;;;;;;1.87;1.40;;;21.40;73.10;21.90;96372.00;;;;5096578;28;20191;-80
2022/09/07 00:59:14;;;;;;;2.47;1.50;;;21.40;73.20;21.90;96377.00;;;;5083145;28;20216;-80
2022/09/07 01:01:41;;;;;;;1.53;1.30;;;21.40;73.00;21.90;96368.00;;;;5091969;28;20206;-80
2022/09/07 01:04:09;;;;;;;2.57;1.40;;;21.40;73.00;21.80;96374.00;;;;5099809;28;20487;-81
2022/09/07 01:06:41;;;;;;;1.40;1.30;;;21.40;73.10;21.80;96378.00;;;;5105285;28;20195;-81
2022/09/07 01:09:14;;;;;;;1.50;1.40;;;21.40;73.10;21.80;96376.00;;;;5091243;28;20222;-80
2022/09/07 01:11:43;;;;;;;3.13;1.40;;;21.30;73.00;21.80;96378.00;;;;5092328;28;20222;-81
2022/09/07 01:14:15;;;;;;;1.63;1.50;;;21.40;73.00;21.70;96374.00;;;;5093841;28;20213;-81
2022/09/07 01:16:59;;;;;;;1.47;1.37;;;21.30;72.90;21.70;96376.00;;;;5093818;28;20191;-81
2022/09/07 01:20:28;;;;;;;1.57;1.30;;;21.30;73.10;21.70;96376.00;;;;5095933;28;20215;-80
2022/09/07 01:23:42;;;;;;;3.67;1.33;;;21.30;73.20;21.70;96387.00;;;;5097024;28;20248;-80
2022/09/07 01:27:03;;;;;;;1.50;1.33;;;21.30;73.10;21.60;96383.00;;;;5095404;28;20190;-80
2022/09/07 01:29:39;;;;;;;2.63;1.23;;;21.30;73.40;21.60;96381.00;;;;5094827;28;20219;-80
2022/09/07 01:32:19;;;;;;;2.20;1.30;;;21.20;73.20;21.60;96380.00;;;;5099471;28;20282;-81
2022/09/07 01:34:53;;;;;;;1.93;1.53;;;21.20;73.50;21.60;96377.00;;;;5096064;28;20230;-81
2022/09/07 01:37:32;;;;;;;1.70;1.50;;;21.20;73.60;21.70;96386.00;;;;5093402;28;20220;-80
2022/09/07 01:40:08;;;;;;;2.13;1.50;;;21.20;73.90;21.70;96386.00;;;;5093675;28;20199;-81
2022/09/07 01:42:47;;;;;;;1.33;1.23;;;21.20;74.00;21.70;96392.00;;;;5094689;28;20241;-81
2022/09/07 01:45:19;;;;;;;2.97;1.40;;;21.20;74.10;21.70;96394.00;;;;5100341;28;20206;-80
2022/09/07 01:47:52;;;;;;;1.83;1.50;;;21.20;74.10;21.70;96393.00;;;;5097019;28;20227;-80
2022/09/07 01:50:25;;;;;;;1.93;1.83;;;21.30;74.30;21.70;96392.00;;;;5097641;28;20206;-80
2022/09/07 01:53:00;;;;;;;2.30;1.43;;;21.20;74.40;21.70;96393.00;;;;5086477;28;20217;-80
2022/09/07 01:55:33;;;;;;;1.60;1.50;;;21.30;74.50;21.80;96394.00;;;;5097454;28;20204;-81
2022/09/07 01:58:10;;;;;;;1.30;1.20;;;21.30;74.60;21.80;96393.00;;;;5091777;28;20207;-81
2022/09/07 02:00:45;;;;;;;1.60;1.50;;;21.30;74.90;21.80;96394.00;;;;5084915;28;20668;-80
2022/09/07 02:03:18;;;;;;;2.00;1.80;;;21.30;74.90;21.90;96389.00;;;;5097355;28;20256;-81
2022/09/07 02:05:57;;;;;;;3.00;1.60;;;21.30;74.90;21.90;96393.00;;;;5089277;28;20268;-80
2022/09/07 02:08:31;;;;;;;1.70;1.60;;;21.30;75.00;21.90;96395.00;;;;5090855;28;20250;-80
2022/09/07 02:11:05;;;;;;;1.73;1.50;;;21.40;74.90;22.00;96399.00;;;;5099894;28;20729;-80
2022/09/07 02:13:38;;;;;;;3.50;1.60;;;21.40;75.20;22.00;96399.00;;;;5099405;28;20249;-80
2022/09/07 02:16:12;;;;;;;2.93;1.80;;;21.40;75.10;22.00;96404.00;;;;5101959;28;20200;-80
2022/09/07 02:18:45;;;;;;;1.77;1.47;;;21.50;75.10;22.00;96401.00;;;;5101367;28;20207;-80
2022/09/07 02:21:19;;;;;;;2.37;1.50;;;21.50;75.10;22.00;96397.00;;;;5092225;28;20208;-81
2022/09/07 02:23:53;;;;;;;2.00;1.90;;;21.50;75.20;22.00;96400.00;;;;5099614;28;20260;-80
2022/09/07 02:26:25;;;;;;;1.90;1.80;;;21.50;75.10;22.00;96392.00;;;;5103640;28;20190;-81
2022/09/07 02:28:52;;;;;;;2.17;1.60;;;21.50;75.00;22.10;96391.00;;;;5101826;28;20212;-81
2022/09/07 02:31:21;;;;;;;1.73;1.63;;;21.50;74.90;22.10;96391.00;;;;5093133;28;20223;-81
2022/09/07 02:33:48;;;;;;;3.17;1.70;;;21.60;74.80;22.10;96389.00;;;;5098783;28;20212;-81
2022/09/07 02:36:21;;;;;;;1.87;1.50;;;21.60;74.70;22.10;96393.00;;;;5098426;28;20217;-81
2022/09/07 02:38:49;;;;;;;2.67;1.87;;;21.60;74.70;22.10;96391.00;;;;5101892;28;20215;-80
2022/09/07 02:41:35;;;;;;;2.60;1.70;;;21.60;74.60;22.10;96396.00;;;;5099164;28;20263;-81
2022/09/07 02:44:07;;;;;;;1.43;1.30;;;21.60;74.80;22.10;96402.00;;;;5099354;28;20201;-81
2022/09/07 02:46:59;;;;;;;1.50;1.40;;;21.60;74.50;22.10;96389.00;;;;5095341;28;20211;-80
2022/09/07 02:49:46;;;;;;;1.70;1.60;;;21.60;74.70;22.10;96397.00;;;;5089268;28;20590;-81
2022/09/07 02:52:29;;;;;;;1.60;1.50;;;21.60;74.70;22.10;96394.00;;;;5101723;28;20300;-81
2022/09/07 02:55:10;;;;;;;2.73;1.43;;;21.60;74.80;22.10;96393.00;;;;5094305;28;20192;-81
2022/09/07 02:57:50;;;;;;;3.23;1.47;;;21.60;74.70;22.10;96393.00;;;;5094479;28;20610;-81
2022/09/07 03:00:24;;;;;;;2.07;1.60;;;21.60;74.70;22.10;96390.00;;;;5093759;28;20726;-81
2022/09/07 03:03:07;;;;;;;2.37;1.80;;;21.60;74.70;22.10;96389.00;;;;5090681;28;20199;-81
2022/09/07 03:05:44;;;;;;;3.17;1.63;;;21.60;74.90;22.10;96388.00;;;;5091557;28;20211;-81
2022/09/07 03:08:17;;;;;;;2.00;1.80;;;21.60;74.90;22.10;96383.00;;;;5095675;28;20222;-81
2022/09/07 03:10:45;;;;;;;2.37;1.80;;;21.60;74.80;22.20;96379.00;;;;5098285;28;20225;-81
2022/09/07 03:13:21;;;;;;;1.83;1.73;;;21.60;74.70;22.20;96371.00;;;;5085448;28;20220;-80
2022/09/07 03:15:48;;;;;;;2.23;1.93;;;21.70;75.00;22.20;96373.00;;;;5093472;28;20197;-81
2022/09/07 03:18:17;;;;;;;2.57;1.80;;;21.70;74.80;22.20;96373.00;;;;5094562;28;20609;-81
2022/09/07 03:20:45;;;;;;;1.63;1.53;;;21.70;74.80;22.20;96372.00;;;;5091700;28;20207;-81
2022/09/07 03:23:12;;;;;;;1.73;1.63;;;21.70;74.80;22.20;96378.00;;;;5095920;28;20195;-80
2022/09/07 03:25:39;;;;;;;1.73;1.50;;;21.70;74.70;22.20;96375.00;;;;5089605;28;20196;-80
2022/09/07 03:28:07;;;;;;;2.67;1.73;;;21.70;74.70;22.20;96374.00;;;;5096593;28;20223;-81
2022/09/07 03:30:34;;;;;;;3.53;1.87;;;21.70;74.70;22.20;96374.00;;;;5089410;28;20548;-82
2022/09/07 03:33:02;;;;;;;2.60;1.50;;;21.70;74.70;22.20;96380.00;;;;5095019;28;20246;-81
2022/09/07 03:35:30;;;;;;;3.13;1.77;;;21.70;74.70;22.20;96373.00;;;;5087780;28;20749;-81
2022/09/07 03:37:57;;;;;;;3.57;1.73;;;21.70;74.80;22.20;96370.00;;;;5092508;28;20214;-81
2022/09/07 03:40:24;;;;;;;2.50;2.10;;;21.70;74.70;22.20;96373.00;;;;5086323;28;20195;-81
2022/09/07 03:42:52;;;;;;;1.70;1.60;;;21.70;74.60;22.20;96371.00;;;;5099353;28;20195;-82
2022/09/07 03:45:19;;;;;;;2.10;1.80;;;21.70;74.70;22.10;96374.00;;;;5105879;28;20261;-81
2022/09/07 03:47:48;;;;;;;3.83;1.70;;;21.70;74.60;22.10;96376.00;;;;5106339;28;20578;-81
2022/09/07 03:50:15;;;;;;;1.87;1.40;;;21.70;74.70;22.10;96368.00;;;;5096954;28;20187;-81
2022/09/07 03:52:44;;;;;;;1.57;1.47;;;21.70;74.60;22.10;96380.00;;;;5092078;28;20223;-81
2022/09/07 03:55:11;;;;;;;2.37;1.50;;;21.70;74.60;22.10;96372.00;;;;5104905;28;20711;-81
2022/09/07 03:57:39;;;;;;;3.00;1.50;;;21.70;74.60;22.10;96374.00;;;;5096617;28;20238;-81
2022/09/07 04:00:07;;;;;;;1.50;1.40;;;21.70;74.70;22.10;96387.00;;;;5095889;28;20197;-81
2022/09/07 04:02:35;;;;;;;2.10;1.50;;;21.70;74.80;22.10;96392.00;;;;5093869;28;20199;-81
2022/09/07 04:05:02;;;;;;;2.77;1.67;;;21.70;74.80;22.10;96394.00;;;;5098285;28;20215;-81
2022/09/07 04:07:29;;;;;;;1.70;1.40;;;21.60;74.80;22.10;96399.00;;;;5092214;28;20216;-82
2022/09/07 04:09:58;;;;;;;3.20;1.83;;;21.60;74.90;22.10;96397.00;;;;5101481;28;20819;-81
2022/09/07 04:12:25;;;;;;;2.30;1.73;;;21.60;75.00;22.10;96391.00;;;;5094118;28;20261;-81
2022/09/07 04:14:52;;;;;;;2.37;1.90;;;21.60;75.00;22.10;96398.00;;;;5102342;28;20192;-82
2022/09/07 04:17:19;;;;;;;1.80;1.50;;;21.70;75.00;22.10;96397.00;;;;5091617;28;20192;-81
2022/09/07 04:19:46;;;;;;;1.60;1.50;;;21.60;75.00;22.10;96397.00;;;;5101283;28;20199;-81
2022/09/07 04:22:14;;;;;;;3.27;1.53;;;21.70;75.10;22.20;96400.00;;;;5096400;28;20196;-81
2022/09/07 04:24:41;;;;;;;1.43;1.33;;;21.70;75.10;22.20;96392.00;;;;5088450;28;21734;-81
2022/09/07 04:27:09;;;;;;;1.30;1.20;;;21.70;75.20;22.20;96390.00;;;;5093440;28;20256;-81
2022/09/07 04:29:37;;;;;;;1.63;1.30;;;21.70;75.20;22.20;96390.00;;;;5091842;28;20268;-81
2022/09/07 04:32:04;;;;;;;2.27;1.60;;;21.70;75.10;22.20;96389.00;;;;5098203;28;20230;-81
2022/09/07 04:34:31;;;;;;;3.67;1.90;;;21.60;75.20;22.20;96392.00;;;;5091316;28;20623;-81
2022/09/07 04:36:58;;;;;;;1.93;1.80;;;21.70;75.30;22.20;96390.00;;;;5089425;28;20643;-81
2022/09/07 04:39:26;;;;;;;2.83;1.63;;;21.70;75.40;22.20;96389.00;;;;5095839;28;20276;-81
2022/09/07 04:41:53;;;;;;;1.97;1.53;;;21.70;75.50;22.20;96395.00;;;;5101912;28;20262;-81
2022/09/07 04:44:22;;;;;;;1.70;1.60;;;21.70;75.50;22.20;96401.00;;;;5102906;28;20700;-81
2022/09/07 04:46:49;;;;;;;2.17;1.97;;;21.70;75.50;22.20;96397.00;;;;5096728;28;20211;-84
2022/09/07 04:49:17;;;;;;;2.90;1.60;;;21.70;75.60;22.20;96399.00;;;;5093411;28;20250;-83
2022/09/07 04:51:44;;;;;;;1.90;1.63;;;21.70;75.60;22.30;96390.00;;;;5097019;28;20222;-83
2022/09/07 04:54:11;;;;;;;2.30;2.10;;;21.70;75.60;22.30;96389.00;;;;5095689;28;20195;-83
2022/09/07 04:56:39;;;;;;;1.90;1.70;;;21.70;75.60;22.30;96389.00;;;;5077905;28;20657;-83
2022/09/07 04:59:06;;;;;;;2.07;1.87;;;21.80;75.70;22.30;96385.00;;;;5083250;28;20219;-84
2022/09/07 05:01:34;;;;;;;2.53;1.90;;;21.80;75.80;22.30;96386.00;;;;5088120;28;20187;-83
2022/09/07 05:04:04;;;;;;;2.20;2.00;;;21.80;75.90;22.30;96390.00;;;;5108154;28;20194;-83
2022/09/07 05:06:31;;;;;;;1.87;1.63;;;21.80;75.80;22.40;96393.00;;;;5090468;28;20186;-83
2022/09/07 05:08:59;;;;;;;2.43;2.20;;;21.80;75.80;22.40;96394.00;;;;5083972;28;20277;-83
2022/09/07 05:11:27;;;;;;;2.00;1.80;;;21.80;75.80;22.40;96390.00;;;;5097997;28;20253;-83
2022/09/07 05:13:56;;;;;;;1.97;1.80;;;21.80;75.80;22.40;96385.00;;;;5086810;28;20217;-82
2022/09/07 05:16:25;;;;;;;2.10;1.90;;;21.90;75.80;22.50;96398.00;;;;5090574;28;20240;-83
2022/09/07 05:18:55;;;;;;;1.90;1.80;;;21.90;75.80;22.50;96407.00;;;;5080117;28;20212;-83
2022/09/07 05:21:26;;;;;;;2.20;2.00;;;21.90;75.90;22.50;96417.00;;;;5093975;28;20192;-83
2022/09/07 05:23:55;;;;;;;2.43;1.80;;;21.90;76.00;22.50;96427.00;;;;5098245;28;20240;-84
2022/09/07 05:26:26;;;;;;;2.10;1.87;;;21.90;75.90;22.50;96426.00;;;;5091512;28;20199;-84
2022/09/07 05:28:54;;;;;;;2.70;1.50;;;22.00;76.70;22.50;96433.00;;;;5084282;28;20315;-83
2022/09/07 05:31:23;;;;;;;2.33;1.83;;;21.90;76.00;22.60;96432.00;;;;5094267;28;20213;-84
2022/09/07 05:33:56;;;;;;;4.50;2.13;;;22.00;76.10;22.70;96431.00;;;;5088542;28;20644;-85
2022/09/07 05:36:24;;;;;;;2.10;1.60;;;22.00;76.20;22.70;96431.00;;;;5087463;28;20187;-86
2022/09/07 05:38:52;;;;;;;2.40;1.70;;;22.00;76.20;22.70;96441.00;;;;5079650;28;20221;-84
2022/09/07 05:41:21;;;;;;;5.40;2.20;;;22.10;76.30;22.80;96439.00;;;;5072106;28;20567;-84
2022/09/07 05:43:50;;;;;;;2.70;2.20;;;22.10;76.40;22.80;96442.00;;;;5072317;28;20199;-83
2022/09/07 05:46:18;;;;;;;2.40;2.10;;;22.10;76.40;22.90;96446.00;;;;5092745;28;20210;-84
2022/09/07 05:48:45;;;;;;;2.30;2.10;;;22.10;76.40;22.90;96448.00;;;;5093485;28;20215;-85
2022/09/07 05:51:14;;;;;;;2.23;1.80;;;22.20;76.40;23.00;96455.00;;;;5096811;28;20217;-84
2022/09/07 05:53:46;;;;;;;2.43;1.97;;;22.20;76.50;23.00;96457.00;;;;5082235;28;20219;-83
2022/09/07 05:56:13;;;;;;;2.10;1.80;;;22.20;76.50;23.00;96454.00;;;;5092553;28;20548;-83
2022/09/07 05:58:41;;;;;;;2.53;1.83;;;22.30;76.60;23.10;96467.00;;;;5094052;28;20720;-84
2022/09/07 06:01:11;;;;;;;3.37;2.40;;;22.30;76.50;23.10;96453.00;;;;5092458;28;20703;-83
2022/09/07 06:03:41;;;;;;;1.90;1.80;;;22.40;76.60;23.20;96461.00;;;;5079466;28;20257;-84
2022/09/07 06:06:11;;;;;;;2.60;1.50;;;22.40;76.50;23.30;96467.00;;;;5093214;28;20199;-83
2022/09/07 06:08:44;;;;;;;1.90;1.80;;;22.50;76.50;23.30;96490.00;;;;5090880;28;20216;-84
2022/09/07 06:11:15;;;;;;;6.80;2.27;;;22.50;76.50;23.40;96493.00;;;;5089084;28;20237;-83
2022/09/07 06:13:42;;;;;;;5.70;2.27;;;22.60;76.60;23.40;96488.00;;;;5093175;28;20265;-83
2022/09/07 06:16:12;;;;;;;3.03;2.20;;;22.60;76.50;23.50;96486.00;;;;5092663;28;20202;-84
2022/09/07 06:18:43;;;;;;;3.43;1.90;;;22.70;76.60;23.50;96491.00;;;;5093587;28;20306;-84
2022/09/07 06:21:13;;;;;;;1.73;1.63;;;22.70;76.60;23.60;96503.00;;;;5094031;28;20232;-84
2022/09/07 06:23:43;;;;;;;1.80;1.70;;;22.80;76.60;23.70;96505.00;;;;5086109;28;20200;-84
2022/09/07 06:26:11;;;;;;;2.30;2.03;;;22.90;76.40;23.80;96505.00;;;;5075547;28;20208;-84
2022/09/07 06:28:41;;;;;;;3.07;1.53;;;22.90;76.10;23.80;96505.00;;;;5074683;28;20941;-84
2022/09/07 06:31:12;;;;;;;2.10;1.90;;;23.00;75.80;23.80;96497.00;;;;5074077;28;20250;-84
2022/09/07 06:33:41;;;;;;;1.77;1.60;;;23.10;75.60;23.80;96506.00;;;;5073216;28;20262;-84
2022/09/07 06:36:13;;;;;;;1.80;1.70;;;23.10;75.40;23.80;96510.00;;;;5072826;28;20398;-84
2022/09/07 06:38:43;;;;;;;5.87;1.77;;;23.10;75.40;23.80;96504.00;;;;5074492;28;20222;-83
2022/09/07 06:41:14;;;;;;;2.17;1.80;;;23.20;75.50;23.80;96501.00;;;;5075351;28;20600;-83
2022/09/07 06:43:42;;;;;;;4.03;1.93;;;23.20;75.80;23.80;96497.00;;;;5074062;28;20654;-83
2022/09/07 06:46:10;;;;;;;4.30;2.23;;;23.20;76.00;23.80;96496.00;;;;5073822;28;20210;-82
2022/09/07 06:48:37;;;;;;;2.00;1.80;;;23.20;76.30;23.80;96499.00;;;;5073524;28;20270;-84
2022/09/07 06:51:07;;;;;;;2.83;1.53;;;23.20;76.40;23.80;96491.00;;;;5074377;28;20227;-84
2022/09/07 06:53:37;;;;;;;5.13;2.17;;;23.20;76.70;23.70;96477.00;;;;5092841;28;20576;-84
2022/09/07 06:56:09;;;;;;;2.23;2.03;;;23.10;76.70;23.70;96485.00;;;;5092037;28;20244;-85
2022/09/07 06:58:37;;;;;;;4.00;1.80;;;23.10;76.80;23.60;96485.00;;;;5092558;28;20288;-85
2022/09/07 07:01:08;;;;;;;3.80;2.10;;;23.10;77.00;23.60;96495.00;;;;5093076;28;20591;-84
2022/09/07 07:03:35;;;;;;;4.17;2.47;;;23.00;77.30;23.60;96496.00;;;;5093601;28;20195;-82
2022/09/07 07:06:03;;;;;;;4.60;2.13;;;23.00;77.50;23.60;96490.00;;;;5092182;28;20195;-85
2022/09/07 07:08:31;;;;;;;1.80;1.70;;;23.00;77.80;23.50;96491.00;;;;5093057;28;20219;-85
2022/09/07 07:11:02;;;;;;;3.33;2.13;;;23.00;77.90;23.60;96475.00;;;;5092647;28;20195;-85
2022/09/07 07:13:31;;;;;;;2.30;1.90;;;23.00;78.40;23.50;96476.00;;;;5091725;28;20302;-83
2022/09/07 07:16:03;;;;;;;3.20;1.83;;;22.90;78.40;23.50;96473.00;;;;5093210;28;20199;-84
2022/09/07 07:18:31;;;;;;;2.50;2.30;;;22.90;78.90;23.60;96473.00;;;;5094321;28;20297;-84
2022/09/07 07:20:58;;;;;;;4.60;2.10;;;22.90;79.00;23.60;96491.00;;;;5089703;28;20196;-84
2022/09/07 07:23:25;;;;;;;2.67;2.00;;;22.90;79.30;23.60;96494.00;;;;5077108;28;20196;-85
2022/09/07 07:25:53;;;;;;;2.73;1.93;;;22.90;79.50;23.60;96498.00;;;;5070644;28;20277;-84
2022/09/07 07:28:22;;;;;;;2.20;2.00;;;22.90;79.70;23.70;96497.00;;;;5076281;28;20231;-84
2022/09/07 07:30:56;;;;;;;6.93;2.47;;;22.90;80.00;23.80;96492.00;;;;5093211;28;20460;-82
2022/09/07 07:33:23;;;;;;;5.60;2.40;;;23.00;80.60;23.80;96497.00;;;;5092458;28;20700;-84
2022/09/07 07:35:51;;;;;;;1.80;1.70;;;23.00;80.50;24.00;96502.00;;;;5090488;28;20244;-85
2022/09/07 07:38:18;;;;;;;3.43;1.93;;;23.10;80.70;24.10;96499.00;;;;5083816;28;20635;-84
2022/09/07 07:40:52;;;;;;;2.80;1.80;;;23.20;80.80;24.20;96507.00;;;;5092357;28;20672;-84
2022/09/07 07:43:19;;;;;;;2.97;2.00;;;23.20;80.90;24.30;96518.00;;;;5092605;28;20185;-84
2022/09/07 07:45:46;;;;;;;1.93;1.53;;;23.30;80.80;24.40;96512.00;;;;5106208;28;20192;-84
2022/09/07 07:48:15;;;;;;;3.73;1.67;;;23.40;80.90;24.50;96512.00;;;;5091693;28;20249;-84
2022/09/07 07:50:42;;;;;;;1.60;1.50;;;23.50;80.80;24.60;96509.00;;;;5087400;28;20198;-84
2022/09/07 07:53:09;;;;;;;2.13;1.77;;;23.60;81.00;24.70;96505.00;;;;5071492;28;20225;-85
2022/09/07 07:55:37;;;;;;;3.07;1.90;;;23.70;81.30;24.90;96507.00;;;;5071352;28;20257;-85
2022/09/07 07:58:05;;;;;;;2.03;1.60;;;23.80;81.40;25.00;96506.00;;;;5072378;28;20214;-85
2022/09/07 08:00:33;;;;;;;2.30;1.60;;;23.90;81.10;25.10;96505.00;;;;5071371;28;20279;-85
2022/09/07 08:03:06;;;;;;;1.30;1.20;;;24.00;80.90;25.20;96502.00;;;;5071713;28;20256;-85
2022/09/07 08:05:38;;;;;;;3.13;1.63;;;24.20;80.70;25.40;96507.00;;;;5080102;28;20606;-85
2022/09/07 08:08:05;;;;;;;1.80;1.30;;;24.30;80.50;25.50;96505.00;;;;5085112;28;20234;-84
2022/09/07 08:10:32;;;;;;;1.27;1.17;;;24.40;80.40;25.60;96513.00;;;;5091336;28;20660;-85
2022/09/07 08:12:59;;;;;;;1.70;1.10;;;24.50;80.20;25.70;96513.00;;;;5091419;28;20342;-85
2022/09/07 08:15:27;;;;;;;1.10;1.00;;;24.60;80.00;25.80;96506.00;;;;5090839;28;20552;-84
2022/09/07 08:17:54;;;;;;;1.67;1.40;;;24.70;79.60;25.90;96500.00;;;;5091354;28;20216;-85
2022/09/07 08:20:21;;;;;;;3.43;1.30;;;24.80;79.10;25.90;96505.00;;;;5091636;28;20191;-83
2022/09/07 08:22:51;;;;;;;2.10;1.20;;;24.90;79.60;26.00;96501.00;;;;5091000;28;20629;-85
2022/09/07 08:25:18;;;;;;;1.27;1.10;;;25.00;78.80;26.10;96499.00;;;;5093584;28;20647;-86
2022/09/07 08:27:45;;;;;;;3.90;1.30;;;25.10;78.80;26.20;96498.00;;;;5091597;28;20226;-85
2022/09/07 08:30:13;;;;;;;2.07;1.27;;;25.20;78.40;26.30;96496.00;;;;5075146;28;20287;-85
2022/09/07 08:32:40;;;;;;;3.23;1.03;;;25.20;78.10;26.30;96491.00;;;;5074510;28;20202;-85
2022/09/07 08:35:08;;;;;;;1.17;1.07;;;25.30;78.50;26.40;96495.00;;;;5074931;28;20271;-85
2022/09/07 08:37:35;;;;;;;1.10;1.00;;;25.40;77.20;26.50;96497.00;;;;5074641;28;20398;-86
2022/09/07 08:40:04;;;;;;;0.77;0.77;;;25.50;76.70;26.60;96496.00;;;;5074601;28;20224;-85
2022/09/07 08:42:46;;;;;;;2.93;1.20;;;25.50;76.40;26.60;96503.00;;;;5085347;28;20195;-85
2022/09/07 08:45:21;;;;;;;1.33;0.80;;;25.60;75.90;26.70;96506.00;;;;5094084;28;20211;-85
2022/09/07 08:47:51;;;;;;;0.93;0.83;;;25.70;76.10;26.90;96507.00;;;;5094470;28;20708;-86
2022/09/07 08:50:23;;;;;;;1.87;1.00;;;25.80;75.60;26.90;96505.00;;;;5094260;28;20607;-85
2022/09/07 08:52:55;;;;;;;1.70;1.00;;;25.90;74.70;27.10;96503.00;;;;5094123;28;20187;-86
2022/09/07 08:55:30;;;;;;;1.37;1.00;;;26.00;74.80;27.20;96506.00;;;;5093620;28;20195;-86
2022/09/07 08:58:10;;;;;;;3.67;1.50;;;26.10;75.30;27.30;96500.00;;;;5094238;28;20590;-86
2022/09/07 09:00:38;;;;;;;2.17;1.20;;;26.20;75.10;27.40;96518.00;;;;5093911;28;20222;-86
2022/09/07 09:03:11;;;;;;;1.70;1.10;;;26.30;75.10;27.60;96519.00;;;;5089041;28;20213;-85
2022/09/07 09:05:51;;;;;;;3.43;0.90;;;26.40;75.30;27.70;96514.00;;;;5094655;28;20633;-85
2022/09/07 09:08:39;;;;;;;6.80;1.23;;;26.50;75.30;27.90;96514.00;;;;5110424;28;20298;-85
2022/09/07 09:11:14;;;;;;;3.57;1.20;;;26.70;74.70;28.10;96506.00;;;;5096352;28;20192;-84
2022/09/07 09:14:04;;;;;;;1.73;1.27;;;26.80;74.60;28.30;96507.00;;;;5094798;28;20213;-84
2022/09/07 09:16:41;;;;;;;1.70;0.90;;;27.00;74.20;28.40;96495.00;;;;5061989;28;20204;-83
2022/09/07 09:19:46;;;;;;;1.27;1.00;;;27.10;73.00;28.60;96498.00;;;;5086872;28;20301;-84
2022/09/07 09:22:18;;;;;;;1.47;1.17;;;27.20;73.10;28.80;96503.00;;;;5074362;28;20186;-84
2022/09/07 09:24:49;;;;;;;9.33;1.67;;;27.40;72.30;28.90;96508.00;;;;5087038;28;20201;-85
2022/09/07 09:27:17;;;;;;;2.17;1.25;;;27.50;71.70;29.00;96491.00;;;;5090133;28;20210;-85
2022/09/07 09:29:45;;;;;;;1.00;0.90;;;27.60;71.50;29.10;96490.00;;;;5078107;28;20631;-84
2022/09/07 09:32:34;;;;;;;2.67;1.20;;;27.70;71.70;29.30;96492.00;;;;5093269;28;20279;-84
2022/09/07 09:35:11;;;;;;;2.28;1.10;;;27.90;71.70;29.40;96492.00;;;;5092887;28;20206;-85
2022/09/07 09:37:40;;;;;;;4.13;1.23;;;28.00;70.50;29.50;96488.00;;;;5093049;28;20663;-85
2022/09/07 09:40:24;;;;;;;2.92;1.30;;;28.20;70.30;29.60;96488.00;;;;5093165;28;20286;-85
2022/09/07 09:43:05;;;;;;;2.22;0.82;;;28.30;69.80;29.70;96488.00;;;;5093347;28;20199;-85
2022/09/07 09:45:36;;;;;;;1.60;0.98;;;28.40;68.00;29.90;96488.00;;;;5093007;28;20733;-84
2022/09/07 09:48:11;;;;;;;1.38;0.80;;;28.50;69.20;30.00;96488.00;;;;5093463;28;20298;-84
2022/09/07 09:50:45;;;;;;;2.33;1.10;;;28.60;68.10;30.10;96489.00;;;;5092052;28;20199;-84
2022/09/07 09:53:26;;;;;;;2.22;0.90;;;28.80;68.80;30.30;96494.00;;;;5092277;28;20629;-85
2022/09/07 09:55:55;;;;;;;1.35;0.80;;;28.90;68.00;30.40;96489.00;;;;5092842;28;20211;-86
2022/09/07 09:58:31;;;;;;;1.08;0.70;;;29.10;67.10;30.60;96486.00;;;;5091722;28;20330;-86
2022/09/07 10:01:01;;;;;;;1.52;1.10;;;29.20;66.50;30.70;96478.00;;;;5092560;28;20190;-87
2022/09/07 10:03:31;;;;;;;1.63;1.08;;;29.40;66.80;30.90;96486.00;;;;5092574;28;20199;-85
2022/09/07 10:06:01;;;;;;;1.08;0.82;;;29.50;65.60;31.00;96492.00;;;;5090599;28;20735;-84
2022/09/07 10:08:31;;;;;;;2.17;1.08;;;29.60;64.40;31.00;96479.00;;;;5093769;28;20279;-84
2022/09/07 10:11:01;;;;;;;3.60;1.10;;;29.70;63.80;31.10;96485.00;;;;5093630;28;20574;-84
2022/09/07 10:13:34;;;;;;;1.27;0.98;;;29.90;64.70;31.30;96483.00;;;;5095065;28;20217;-85
2022/09/07 10:16:05;;;;;;;2.35;0.90;;;30.00;64.30;31.40;96486.00;;;;5093194;28;20183;-84
2022/09/07 10:18:36;;;;;;;1.58;0.90;;;30.10;63.80;31.50;96486.00;;;;5094246;28;20212;-84
2022/09/07 10:21:24;;;;;;;1.92;1.27;;;30.30;62.90;31.50;96486.00;;;;5083475;28;20210;-84
2022/09/07 10:23:58;;;;;;;1.25;1.10;;;30.40;61.50;31.60;96484.00;;;;5078270;28;20670;-84
2022/09/07 10:26:33;;;;;;;2.45;0.95;;;30.40;61.10;31.60;96487.00;;;;5080663;28;20214;-84
2022/09/07 10:29:15;;;;;;;1.58;0.80;;;30.50;61.30;31.70;96488.00;;;;5074276;28;20310;-83
2022/09/07 10:32:19;;;;;;;1.10;0.80;;;30.60;60.90;31.80;96476.00;;;;5074705;28;20607;-84
2022/09/07 10:35:04;;;;;;;3.22;0.98;;;30.70;60.90;31.90;96485.00;;;;5071629;28;20229;-84
2022/09/07 10:37:48;;;;;;;2.08;1.00;;;30.80;61.00;32.10;96479.00;;;;5086754;28;20626;-84
2022/09/07 10:40:33;;;;;;;0.90;0.90;;;30.90;60.80;32.20;96479.00;;;;5093440;28;20271;-84
2022/09/07 10:43:18;;;;;;;3.13;0.98;;;31.10;61.30;32.20;96478.00;;;;5093073;28;20287;-84
2022/09/07 10:46:04;;;;;;;1.75;0.73;;;31.20;59.60;32.30;96476.00;;;;5077278;28;20210;-84
2022/09/07 10:48:43;;;;;;;2.33;0.80;;;31.30;59.40;32.30;96467.00;;;;5093948;28;20306;-84
2022/09/07 10:51:17;;;;;;;1.20;0.90;;;31.30;58.60;32.30;96469.00;;;;5093687;28;20274;-84
2022/09/07 10:53:56;;;;;;;0.88;0.60;;;31.40;58.40;32.30;96467.00;;;;5094553;28;20207;-84
2022/09/07 10:56:30;;;;;;;1.58;1.05;;;31.40;58.50;32.20;96457.00;;;;5093610;28;20206;-83
2022/09/07 10:59:12;;;;;;;2.60;0.73;;;31.40;57.70;32.20;96456.00;;;;5093153;28;20242;-84
2022/09/07 11:01:57;;;;;;;2.03;0.80;;;31.40;57.10;32.10;96457.00;;;;5092044;28;20180;-84
2022/09/07 11:04:46;;;;;;;6.57;1.15;;;31.40;57.80;32.10;96450.00;;;;5091198;28;20226;-85
2022/09/07 11:07:33;;;;;;;2.03;1.10;;;31.30;57.60;32.00;96444.00;;;;5092575;28;20218;-84
2022/09/07 11:10:15;;;;;;;1.90;0.90;;;31.30;57.10;32.00;96434.00;;;;5091374;28;20214;-85
2022/09/07 11:12:45;;;;;;;2.25;1.00;;;31.20;56.70;31.90;96439.00;;;;5092011;28;20188;-84
2022/09/07 11:15:22;;;;;;;1.13;0.80;;;31.20;56.60;31.80;96429.00;;;;5091357;28;20229;-86
2022/09/07 11:17:56;;;;;;;2.00;0.90;;;31.10;55.90;31.70;96426.00;;;;5091448;28;20214;-86